sensor_id;sensor_type;location;lat;lon;timestamp;temperature;humidity
5023;DHT22;2530;47.990;7.866;2023-08-06T00:01:49;16.00;99.90
5023;DHT22;2530;47.990;7.866;2023-08-06T00:04:15;15.40;99.90
5023;DHT22;2530;47.990;7.866;2023-08-06T00:06:40;15.20;99.90
5023;DHT22;2530;47.990;7.866;2023-08-06T00:09:06;15.60;99.90
5023;DHT22;2530;47.990;7.866;2023-08-06T00:11:31;15.50;99.90
5023;DHT22;2530;47.990;7.866;2023-08-06T00:13:57;15.50;99.90
5023;DHT22;2530;47.990;7.866;2023-08-06T00:16:22;15.20;99.90
5023;DHT22;2530;47.990;7.866;2023-08-06T00:18:48;15.80;99.90
5023;DHT22;2530;47.990;7.866;2023-08-06T00:21:13;16.70;99.90
5023;DHT22;2530;47.990;7.866;2023-08-06T00:23:40;15.50;99.90
5023;DHT22;2530;47.990;7.866;2023-08-06T00:26:05;15.50;99.90
5023;DHT22;2530;47.990;7.866;2023-08-06T00:28:31;15.00;99.90
5023;DHT22;2530;47.990;7.866;2023-08-06T00:30:57;15.70;99.90
5023;DHT22;2530;47.990;7.866;2023-08-06T00:33:23;15.60;99.90
5023;DHT22;2530;47.990;7.866;2023-08-06T00:35:49;15.20;99.90
5023;DHT22;2530;47.990;7.866;2023-08-06T00:38:15;15.10;99.90
5023;DHT22;2530;47.990;7.866;2023-08-06T00:40:40;15.50;99.90
5023;DHT22;2530;47.990;7.866;2023-08-06T00:43:06;15.00;99.90
5023;DHT22;2530;47.990;7.866;2023-08-06T00:45:35;15.90;99.90
5023;DHT22;2530;47.990;7.866;2023-08-06T00:48:01;15.20;99.90
5023;DHT22;2530;47.990;7.866;2023-08-06T00:50:27;16.40;99.90
5023;DHT22;2530;47.990;7.866;2023-08-06T00:52:53;15.80;99.90
5023;DHT22;2530;47.990;7.866;2023-08-06T00:55:19;16.00;99.90
5023;DHT22;2530;47.990;7.866;2023-08-06T00:57:45;15.70;99.90
5023;DHT22;2530;47.990;7.866;2023-08-06T01:00:11;15.60;99.90
5023;DHT22;2530;47.990;7.866;2023-08-06T01:02:37;15.60;99.90
5023;DHT22;2530;47.990;7.866;2023-08-06T01:05:03;15.60;99.90
5023;DHT22;2530;47.990;7.866;2023-08-06T01:15:41;15.90;99.90
5023;DHT22;2530;47.990;7.866;2023-08-06T01:18:07;15.80;99.90
5023;DHT22;2530;47.990;7.866;2023-08-06T01:20:33;16.20;99.90
5023;DHT22;2530;47.990;7.866;2023-08-06T01:22:59;16.10;99.90
5023;DHT22;2530;47.990;7.866;2023-08-06T01:25:43;15.80;99.90
5023;DHT22;2530;47.990;7.866;2023-08-06T01:28:25;16.20;99.90
5023;DHT22;2530;47.990;7.866;2023-08-06T01:30:55;16.30;99.90
5023;DHT22;2530;47.990;7.866;2023-08-06T01:33:25;16.50;99.90
5023;DHT22;2530;47.990;7.866;2023-08-06T01:35:54;16.40;99.90
5023;DHT22;2530;47.990;7.866;2023-08-06T01:38:20;16.60;99.90
5023;DHT22;2530;47.990;7.866;2023-08-06T01:40:46;16.70;99.90
5023;DHT22;2530;47.990;7.866;2023-08-06T01:43:11;16.30;99.90
5023;DHT22;2530;47.990;7.866;2023-08-06T01:45:37;16.30;99.90
5023;DHT22;2530;47.990;7.866;2023-08-06T01:48:03;16.40;99.90
5023;DHT22;2530;47.990;7.866;2023-08-06T01:50:28;16.60;99.90
5023;DHT22;2530;47.990;7.866;2023-08-06T01:52:54;16.50;99.90
5023;DHT22;2530;47.990;7.866;2023-08-06T01:55:19;16.60;99.90
5023;DHT22;2530;47.990;7.866;2023-08-06T01:57:45;16.60;99.90
5023;DHT22;2530;47.990;7.866;2023-08-06T02:00:11;16.40;99.90
5023;DHT22;2530;47.990;7.866;2023-08-06T02:02:36;16.70;99.90
5023;DHT22;2530;47.990;7.866;2023-08-06T02:05:02;16.80;99.90
5023;DHT22;2530;47.990;7.866;2023-08-06T02:07:28;16.80;99.90
5023;DHT22;2530;47.990;7.866;2023-08-06T02:09:53;16.70;99.90
5023;DHT22;2530;47.990;7.866;2023-08-06T02:12:19;16.40;99.90
5023;DHT22;2530;47.990;7.866;2023-08-06T02:14:44;16.10;99.90
5023;DHT22;2530;47.990;7.866;2023-08-06T02:17:10;15.70;99.90
5023;DHT22;2530;47.990;7.866;2023-08-06T02:19:35;15.90;99.90
5023;DHT22;2530;47.990;7.866;2023-08-06T02:22:00;15.60;99.90
5023;DHT22;2530;47.990;7.866;2023-08-06T02:24:27;15.70;99.90
5023;DHT22;2530;47.990;7.866;2023-08-06T02:26:53;15.50;99.90
5023;DHT22;2530;47.990;7.866;2023-08-06T02:29:21;15.40;99.90
5023;DHT22;2530;47.990;7.866;2023-08-06T02:31:46;15.40;99.90
5023;DHT22;2530;47.990;7.866;2023-08-06T02:34:12;14.90;99.90
5023;DHT22;2530;47.990;7.866;2023-08-06T02:36:37;15.20;99.90
5023;DHT22;2530;47.990;7.866;2023-08-06T02:39:03;14.50;99.90
5023;DHT22;2530;47.990;7.866;2023-08-06T02:41:28;15.10;99.90
5023;DHT22;2530;47.990;7.866;2023-08-06T02:43:54;14.80;99.90
5023;DHT22;2530;47.990;7.866;2023-08-06T02:46:19;14.90;99.90
5023;DHT22;2530;47.990;7.866;2023-08-06T02:48:45;14.80;99.90
5023;DHT22;2530;47.990;7.866;2023-08-06T02:51:10;14.50;99.90
5023;DHT22;2530;47.990;7.866;2023-08-06T02:53:36;14.70;99.90
5023;DHT22;2530;47.990;7.866;2023-08-06T02:56:01;14.50;99.90
5023;DHT22;2530;47.990;7.866;2023-08-06T02:58:27;14.60;99.90
5023;DHT22;2530;47.990;7.866;2023-08-06T03:01:03;14.40;99.90
5023;DHT22;2530;47.990;7.866;2023-08-06T03:03:30;14.30;99.90
5023;DHT22;2530;47.990;7.866;2023-08-06T03:05:56;14.20;99.90
5023;DHT22;2530;47.990;7.866;2023-08-06T03:08:21;14.00;99.90
5023;DHT22;2530;47.990;7.866;2023-08-06T03:10:51;14.00;99.90
5023;DHT22;2530;47.990;7.866;2023-08-06T03:13:17;14.10;99.90
5023;DHT22;2530;47.990;7.866;2023-08-06T03:15:44;14.70;99.90
5023;DHT22;2530;47.990;7.866;2023-08-06T03:18:16;14.00;99.90
5023;DHT22;2530;47.990;7.866;2023-08-06T03:20:42;14.00;99.90
5023;DHT22;2530;47.990;7.866;2023-08-06T03:23:07;13.90;99.90
5023;DHT22;2530;47.990;7.866;2023-08-06T03:25:35;13.90;99.90
5023;DHT22;2530;47.990;7.866;2023-08-06T03:28:01;13.90;99.90
5023;DHT22;2530;47.990;7.866;2023-08-06T03:30:26;13.80;99.90
5023;DHT22;2530;47.990;7.866;2023-08-06T03:32:51;13.90;99.90
5023;DHT22;2530;47.990;7.866;2023-08-06T03:35:17;14.00;99.90
5023;DHT22;2530;47.990;7.866;2023-08-06T03:37:43;13.70;99.90
5023;DHT22;2530;47.990;7.866;2023-08-06T03:40:09;13.90;99.90
5023;DHT22;2530;47.990;7.866;2023-08-06T03:42:34;14.00;99.90
5023;DHT22;2530;47.990;7.866;2023-08-06T03:45:00;13.80;99.90
5023;DHT22;2530;47.990;7.866;2023-08-06T03:47:25;13.90;99.90
5023;DHT22;2530;47.990;7.866;2023-08-06T03:49:51;13.20;99.90
5023;DHT22;2530;47.990;7.866;2023-08-06T03:52:16;13.90;99.90
5023;DHT22;2530;47.990;7.866;2023-08-06T03:54:42;13.50;99.90
5023;DHT22;2530;47.990;7.866;2023-08-06T03:57:08;13.80;99.90
5023;DHT22;2530;47.990;7.866;2023-08-06T03:59:34;13.90;99.90
5023;DHT22;2530;47.990;7.866;2023-08-06T04:02:00;13.90;99.90
5023;DHT22;2530;47.990;7.866;2023-08-06T04:04:25;13.90;99.90
5023;DHT22;2530;47.990;7.866;2023-08-06T04:06:51;13.90;99.90
5023;DHT22;2530;47.990;7.866;2023-08-06T04:09:16;13.50;99.90
5023;DHT22;2530;47.990;7.866;2023-08-06T04:11:42;13.90;99.90
5023;DHT22;2530;47.990;7.866;2023-08-06T04:14:07;13.60;99.90
5023;DHT22;2530;47.990;7.866;2023-08-06T04:16:33;13.80;99.90
5023;DHT22;2530;47.990;7.866;2023-08-06T04:18:58;13.90;99.90
5023;DHT22;2530;47.990;7.866;2023-08-06T04:21:24;13.90;99.90
5023;DHT22;2530;47.990;7.866;2023-08-06T04:23:49;13.90;99.90
5023;DHT22;2530;47.990;7.866;2023-08-06T04:26:15;13.70;99.90
5023;DHT22;2530;47.990;7.866;2023-08-06T04:28:41;14.00;99.90
5023;DHT22;2530;47.990;7.866;2023-08-06T04:31:06;13.90;99.90
5023;DHT22;2530;47.990;7.866;2023-08-06T04:33:32;14.00;99.90
5023;DHT22;2530;47.990;7.866;2023-08-06T04:35:57;13.90;99.90
5023;DHT22;2530;47.990;7.866;2023-08-06T04:38:23;13.60;99.90
5023;DHT22;2530;47.990;7.866;2023-08-06T04:40:49;13.90;99.90
5023;DHT22;2530;47.990;7.866;2023-08-06T04:43:15;13.90;99.90
5023;DHT22;2530;47.990;7.866;2023-08-06T04:45:50;14.00;99.90
5023;DHT22;2530;47.990;7.866;2023-08-06T04:48:16;13.90;99.90
5023;DHT22;2530;47.990;7.866;2023-08-06T04:50:49;13.90;99.90
5023;DHT22;2530;47.990;7.866;2023-08-06T04:53:15;13.80;99.90
5023;DHT22;2530;47.990;7.866;2023-08-06T04:55:41;13.70;99.90
5023;DHT22;2530;47.990;7.866;2023-08-06T04:58:08;13.30;99.90
5023;DHT22;2530;47.990;7.866;2023-08-06T05:00:34;13.40;99.90
5023;DHT22;2530;47.990;7.866;2023-08-06T05:03:00;13.30;99.90
5023;DHT22;2530;47.990;7.866;2023-08-06T05:05:26;13.00;99.90
5023;DHT22;2530;47.990;7.866;2023-08-06T05:07:53;13.00;99.90
5023;DHT22;2530;47.990;7.866;2023-08-06T05:10:19;13.00;99.90
5023;DHT22;2530;47.990;7.866;2023-08-06T05:12:44;12.60;99.90
5023;DHT22;2530;47.990;7.866;2023-08-06T05:15:10;12.60;99.90
5023;DHT22;2530;47.990;7.866;2023-08-06T05:17:35;12.70;99.90
5023;DHT22;2530;47.990;7.866;2023-08-06T05:20:01;12.80;99.90
5023;DHT22;2530;47.990;7.866;2023-08-06T05:22:26;12.90;99.90
5023;DHT22;2530;47.990;7.866;2023-08-06T05:24:52;12.90;99.90
5023;DHT22;2530;47.990;7.866;2023-08-06T05:27:17;12.80;99.90
5023;DHT22;2530;47.990;7.866;2023-08-06T05:29:47;13.40;99.90
5023;DHT22;2530;47.990;7.866;2023-08-06T05:32:13;12.80;99.90
5023;DHT22;2530;47.990;7.866;2023-08-06T05:34:38;12.80;99.90
5023;DHT22;2530;47.990;7.866;2023-08-06T05:37:04;12.80;99.90
5023;DHT22;2530;47.990;7.866;2023-08-06T05:39:30;12.80;99.90
5023;DHT22;2530;47.990;7.866;2023-08-06T05:41:55;12.80;99.90
5023;DHT22;2530;47.990;7.866;2023-08-06T05:44:23;12.80;99.90
5023;DHT22;2530;47.990;7.866;2023-08-06T05:46:49;12.80;99.90
5023;DHT22;2530;47.990;7.866;2023-08-06T05:49:15;12.50;99.90
5023;DHT22;2530;47.990;7.866;2023-08-06T05:51:40;12.50;99.90
5023;DHT22;2530;47.990;7.866;2023-08-06T05:54:06;12.70;99.90
5023;DHT22;2530;47.990;7.866;2023-08-06T05:56:31;12.40;99.90
5023;DHT22;2530;47.990;7.866;2023-08-06T05:58:57;12.70;99.90
5023;DHT22;2530;47.990;7.866;2023-08-06T06:01:22;12.80;99.90
5023;DHT22;2530;47.990;7.866;2023-08-06T06:03:48;12.70;99.90
5023;DHT22;2530;47.990;7.866;2023-08-06T06:06:14;12.80;99.90
5023;DHT22;2530;47.990;7.866;2023-08-06T06:08:39;12.70;99.90
5023;DHT22;2530;47.990;7.866;2023-08-06T06:11:05;12.80;99.90
5023;DHT22;2530;47.990;7.866;2023-08-06T06:13:30;12.90;99.90
5023;DHT22;2530;47.990;7.866;2023-08-06T06:15:56;12.90;99.90
5023;DHT22;2530;47.990;7.866;2023-08-06T06:18:22;12.10;99.90
5023;DHT22;2530;47.990;7.866;2023-08-06T06:20:48;13.10;99.90
5023;DHT22;2530;47.990;7.866;2023-08-06T06:23:13;13.10;99.90
5023;DHT22;2530;47.990;7.866;2023-08-06T06:25:47;13.90;99.90
5023;DHT22;2530;47.990;7.866;2023-08-06T06:28:13;13.80;99.90
5023;DHT22;2530;47.990;7.866;2023-08-06T06:30:38;13.00;99.90
5023;DHT22;2530;47.990;7.866;2023-08-06T06:33:04;12.80;99.90
5023;DHT22;2530;47.990;7.866;2023-08-06T06:35:29;13.10;99.90
5023;DHT22;2530;47.990;7.866;2023-08-06T06:37:55;12.40;99.90
5023;DHT22;2530;47.990;7.866;2023-08-06T06:40:20;12.90;99.90
5023;DHT22;2530;47.990;7.866;2023-08-06T06:42:46;12.90;99.90
5023;DHT22;2530;47.990;7.866;2023-08-06T06:45:11;12.90;99.90
5023;DHT22;2530;47.990;7.866;2023-08-06T06:47:37;13.00;99.90
5023;DHT22;2530;47.990;7.866;2023-08-06T06:50:03;12.10;99.90
5023;DHT22;2530;47.990;7.866;2023-08-06T06:52:29;12.90;99.90
5023;DHT22;2530;47.990;7.866;2023-08-06T06:54:55;12.90;99.90
5023;DHT22;2530;47.990;7.866;2023-08-06T06:57:20;12.00;99.90
5023;DHT22;2530;47.990;7.866;2023-08-06T06:59:46;12.70;99.90
5023;DHT22;2530;47.990;7.866;2023-08-06T07:02:11;12.80;99.90
5023;DHT22;2530;47.990;7.866;2023-08-06T07:04:37;12.50;99.90
5023;DHT22;2530;47.990;7.866;2023-08-06T07:07:03;12.80;99.90
5023;DHT22;2530;47.990;7.866;2023-08-06T07:09:28;12.80;99.90
5023;DHT22;2530;47.990;7.866;2023-08-06T07:11:54;12.30;99.90
5023;DHT22;2530;47.990;7.866;2023-08-06T07:14:19;12.90;99.90
5023;DHT22;2530;47.990;7.866;2023-08-06T07:16:45;12.30;99.90
5023;DHT22;2530;47.990;7.866;2023-08-06T07:19:10;12.90;99.90
5023;DHT22;2530;47.990;7.866;2023-08-06T07:21:36;12.90;99.90
5023;DHT22;2530;47.990;7.866;2023-08-06T07:24:01;13.00;99.90
5023;DHT22;2530;47.990;7.866;2023-08-06T07:26:27;13.00;99.90
5023;DHT22;2530;47.990;7.866;2023-08-06T07:28:53;12.90;99.90
5023;DHT22;2530;47.990;7.866;2023-08-06T07:31:18;13.00;99.90
5023;DHT22;2530;47.990;7.866;2023-08-06T07:33:44;13.10;99.90
5023;DHT22;2530;47.990;7.866;2023-08-06T07:36:11;13.10;99.90
5023;DHT22;2530;47.990;7.866;2023-08-06T07:38:37;13.10;99.90
5023;DHT22;2530;47.990;7.866;2023-08-06T07:41:03;13.10;99.90
5023;DHT22;2530;47.990;7.866;2023-08-06T07:43:29;12.80;99.90
5023;DHT22;2530;47.990;7.866;2023-08-06T07:45:57;13.20;99.90
5023;DHT22;2530;47.990;7.866;2023-08-06T07:48:22;13.40;99.90
5023;DHT22;2530;47.990;7.866;2023-08-06T07:50:54;13.10;99.90
5023;DHT22;2530;47.990;7.866;2023-08-06T07:53:21;13.50;99.90
5023;DHT22;2530;47.990;7.866;2023-08-06T07:55:52;13.50;99.90
5023;DHT22;2530;47.990;7.866;2023-08-06T07:58:22;13.60;99.90
5023;DHT22;2530;47.990;7.866;2023-08-06T08:00:48;13.60;99.90
5023;DHT22;2530;47.990;7.866;2023-08-06T08:03:15;13.60;99.90
5023;DHT22;2530;47.990;7.866;2023-08-06T08:05:41;13.70;99.90
5023;DHT22;2530;47.990;7.866;2023-08-06T08:08:07;13.60;99.90
5023;DHT22;2530;47.990;7.866;2023-08-06T08:10:33;13.70;99.90
5023;DHT22;2530;47.990;7.866;2023-08-06T08:13:02;13.70;99.90
5023;DHT22;2530;47.990;7.866;2023-08-06T08:15:29;13.60;99.90
5023;DHT22;2530;47.990;7.866;2023-08-06T08:17:54;13.50;99.90
5023;DHT22;2530;47.990;7.866;2023-08-06T08:20:20;13.50;99.90
5023;DHT22;2530;47.990;7.866;2023-08-06T08:22:46;13.40;99.90
5023;DHT22;2530;47.990;7.866;2023-08-06T08:25:11;13.40;99.90
5023;DHT22;2530;47.990;7.866;2023-08-06T08:27:37;13.40;99.90
5023;DHT22;2530;47.990;7.866;2023-08-06T08:30:03;12.90;99.90
5023;DHT22;2530;47.990;7.866;2023-08-06T08:32:28;13.40;99.90
5023;DHT22;2530;47.990;7.866;2023-08-06T08:34:54;13.40;99.90
5023;DHT22;2530;47.990;7.866;2023-08-06T08:37:19;13.20;99.90
5023;DHT22;2530;47.990;7.866;2023-08-06T08:39:45;13.30;99.90
5023;DHT22;2530;47.990;7.866;2023-08-06T08:42:10;13.00;99.90
5023;DHT22;2530;47.990;7.866;2023-08-06T08:44:36;12.80;99.90
5023;DHT22;2530;47.990;7.866;2023-08-06T08:47:06;13.10;99.90
5023;DHT22;2530;47.990;7.866;2023-08-06T08:49:32;13.00;99.90
5023;DHT22;2530;47.990;7.866;2023-08-06T08:51:59;13.00;99.90
5023;DHT22;2530;47.990;7.866;2023-08-06T08:54:25;12.50;99.90
5023;DHT22;2530;47.990;7.866;2023-08-06T08:56:51;13.30;99.90
5023;DHT22;2530;47.990;7.866;2023-08-06T08:59:17;13.30;99.90
5023;DHT22;2530;47.990;7.866;2023-08-06T09:01:42;13.40;99.90
5023;DHT22;2530;47.990;7.866;2023-08-06T09:04:10;13.40;99.90
5023;DHT22;2530;47.990;7.866;2023-08-06T09:06:38;13.30;99.90
5023;DHT22;2530;47.990;7.866;2023-08-06T09:09:19;13.10;99.90
5023;DHT22;2530;47.990;7.866;2023-08-06T09:11:48;13.50;99.90
5023;DHT22;2530;47.990;7.866;2023-08-06T09:14:14;14.30;99.90
5023;DHT22;2530;47.990;7.866;2023-08-06T09:16:40;12.60;99.90
5023;DHT22;2530;47.990;7.866;2023-08-06T09:19:13;13.50;99.90
5023;DHT22;2530;47.990;7.866;2023-08-06T09:21:41;13.60;99.90
5023;DHT22;2530;47.990;7.866;2023-08-06T09:24:10;13.60;99.90
5023;DHT22;2530;47.990;7.866;2023-08-06T09:26:37;13.60;99.90
5023;DHT22;2530;47.990;7.866;2023-08-06T09:29:05;13.60;99.90
5023;DHT22;2530;47.990;7.866;2023-08-06T09:31:42;13.10;99.90
5023;DHT22;2530;47.990;7.866;2023-08-06T09:34:21;13.60;99.90
5023;DHT22;2530;47.990;7.866;2023-08-06T09:36:53;13.70;99.90
5023;DHT22;2530;47.990;7.866;2023-08-06T09:39:21;13.70;99.90
5023;DHT22;2530;47.990;7.866;2023-08-06T09:41:48;13.80;99.90
5023;DHT22;2530;47.990;7.866;2023-08-06T09:44:18;13.80;99.90
5023;DHT22;2530;47.990;7.866;2023-08-06T09:46:48;14.50;99.90
5023;DHT22;2530;47.990;7.866;2023-08-06T09:49:18;14.40;99.90
5023;DHT22;2530;47.990;7.866;2023-08-06T09:51:47;13.60;99.90
5023;DHT22;2530;47.990;7.866;2023-08-06T09:54:16;13.90;99.90
5023;DHT22;2530;47.990;7.866;2023-08-06T09:56:42;13.90;99.90
5023;DHT22;2530;47.990;7.866;2023-08-06T09:59:08;13.90;99.90
5023;DHT22;2530;47.990;7.866;2023-08-06T10:01:35;13.50;99.90
5023;DHT22;2530;47.990;7.866;2023-08-06T10:04:05;13.50;99.90
5023;DHT22;2530;47.990;7.866;2023-08-06T10:06:34;14.00;99.90
5023;DHT22;2530;47.990;7.866;2023-08-06T10:09:06;13.90;99.90
5023;DHT22;2530;47.990;7.866;2023-08-06T10:11:33;14.00;99.90
5023;DHT22;2530;47.990;7.866;2023-08-06T10:14:02;15.60;99.90
5023;DHT22;2530;47.990;7.866;2023-08-06T10:16:31;13.90;99.90
5023;DHT22;2530;47.990;7.866;2023-08-06T10:18:57;13.40;99.90
5023;DHT22;2530;47.990;7.866;2023-08-06T10:21:25;14.10;99.90
5023;DHT22;2530;47.990;7.866;2023-08-06T10:23:56;14.20;99.90
5023;DHT22;2530;47.990;7.866;2023-08-06T10:26:29;14.30;99.90
5023;DHT22;2530;47.990;7.866;2023-08-06T10:28:55;14.30;99.90
5023;DHT22;2530;47.990;7.866;2023-08-06T10:31:58;14.20;99.90
5023;DHT22;2530;47.990;7.866;2023-08-06T10:34:25;14.20;99.90
5023;DHT22;2530;47.990;7.866;2023-08-06T10:36:54;13.70;99.90
5023;DHT22;2530;47.990;7.866;2023-08-06T10:39:20;14.10;99.90
5023;DHT22;2530;47.990;7.866;2023-08-06T10:41:45;14.00;99.90
5023;DHT22;2530;47.990;7.866;2023-08-06T10:44:11;14.10;99.90
5023;DHT22;2530;47.990;7.866;2023-08-06T10:46:37;14.10;99.90
5023;DHT22;2530;47.990;7.866;2023-08-06T10:49:04;16.70;99.90
5023;DHT22;2530;47.990;7.866;2023-08-06T10:51:30;14.20;99.90
5023;DHT22;2530;47.990;7.866;2023-08-06T10:53:56;14.20;99.90
5023;DHT22;2530;47.990;7.866;2023-08-06T10:56:24;13.90;99.90
5023;DHT22;2530;47.990;7.866;2023-08-06T10:58:53;14.60;99.90
5023;DHT22;2530;47.990;7.866;2023-08-06T11:01:19;13.80;99.90
5023;DHT22;2530;47.990;7.866;2023-08-06T11:03:47;12.90;99.90
5023;DHT22;2530;47.990;7.866;2023-08-06T11:06:18;14.80;99.90
5023;DHT22;2530;47.990;7.866;2023-08-06T11:08:49;15.20;99.90
5023;DHT22;2530;47.990;7.866;2023-08-06T11:11:16;13.60;99.90
5023;DHT22;2530;47.990;7.866;2023-08-06T11:13:46;13.40;99.90
5023;DHT22;2530;47.990;7.866;2023-08-06T11:16:13;13.60;99.90
5023;DHT22;2530;47.990;7.866;2023-08-06T11:18:40;13.50;99.90
5023;DHT22;2530;47.990;7.866;2023-08-06T11:21:06;13.50;99.90
5023;DHT22;2530;47.990;7.866;2023-08-06T11:23:34;13.40;99.90
5023;DHT22;2530;47.990;7.866;2023-08-06T11:26:00;13.30;99.90
5023;DHT22;2530;47.990;7.866;2023-08-06T11:28:26;13.60;99.90
5023;DHT22;2530;47.990;7.866;2023-08-06T11:30:52;13.50;99.90
5023;DHT22;2530;47.990;7.866;2023-08-06T11:33:27;13.60;99.90
5023;DHT22;2530;47.990;7.866;2023-08-06T11:35:56;13.50;99.90
5023;DHT22;2530;47.990;7.866;2023-08-06T11:38:24;13.70;99.90
5023;DHT22;2530;47.990;7.866;2023-08-06T11:40:50;13.80;99.90
5023;DHT22;2530;47.990;7.866;2023-08-06T11:43:18;13.80;99.90
5023;DHT22;2530;47.990;7.866;2023-08-06T11:45:44;13.90;99.90
5023;DHT22;2530;47.990;7.866;2023-08-06T11:48:10;13.80;99.90
5023;DHT22;2530;47.990;7.866;2023-08-06T11:50:39;14.00;99.90
5023;DHT22;2530;47.990;7.866;2023-08-06T11:53:04;13.00;99.90
5023;DHT22;2530;47.990;7.866;2023-08-06T11:55:30;15.50;99.90
5023;DHT22;2530;47.990;7.866;2023-08-06T11:57:56;14.10;99.90
5023;DHT22;2530;47.990;7.866;2023-08-06T12:00:25;14.10;99.90
5023;DHT22;2530;47.990;7.866;2023-08-06T12:02:51;14.00;99.90
5023;DHT22;2530;47.990;7.866;2023-08-06T12:05:19;14.30;99.90
5023;DHT22;2530;47.990;7.866;2023-08-06T12:07:55;15.30;99.90
5023;DHT22;2530;47.990;7.866;2023-08-06T12:10:24;14.10;99.90
5023;DHT22;2530;47.990;7.866;2023-08-06T12:12:50;14.00;99.90
5023;DHT22;2530;47.990;7.866;2023-08-06T12:15:16;13.90;99.90
5023;DHT22;2530;47.990;7.866;2023-08-06T12:17:42;14.00;99.90
5023;DHT22;2530;47.990;7.866;2023-08-06T12:20:09;14.00;99.90
5023;DHT22;2530;47.990;7.866;2023-08-06T12:22:35;14.00;99.90
5023;DHT22;2530;47.990;7.866;2023-08-06T12:25:02;14.10;99.90
5023;DHT22;2530;47.990;7.866;2023-08-06T12:27:38;14.20;99.90
5023;DHT22;2530;47.990;7.866;2023-08-06T12:30:05;14.30;99.90
5023;DHT22;2530;47.990;7.866;2023-08-06T12:32:31;14.40;99.90
5023;DHT22;2530;47.990;7.866;2023-08-06T12:34:57;14.50;99.90
5023;DHT22;2530;47.990;7.866;2023-08-06T12:37:24;14.60;99.90
5023;DHT22;2530;47.990;7.866;2023-08-06T12:39:50;14.70;99.90
5023;DHT22;2530;47.990;7.866;2023-08-06T12:42:15;15.90;99.90
5023;DHT22;2530;47.990;7.866;2023-08-06T12:44:41;16.30;99.90
5023;DHT22;2530;47.990;7.866;2023-08-06T12:47:09;14.60;99.90
5023;DHT22;2530;47.990;7.866;2023-08-06T12:49:35;14.60;99.90
5023;DHT22;2530;47.990;7.866;2023-08-06T12:52:01;14.30;99.90
5023;DHT22;2530;47.990;7.866;2023-08-06T12:54:27;13.30;99.90
5023;DHT22;2530;47.990;7.866;2023-08-06T12:56:52;13.10;99.90
5023;DHT22;2530;47.990;7.866;2023-08-06T12:59:18;13.10;99.90
5023;DHT22;2530;47.990;7.866;2023-08-06T13:01:44;13.20;99.90
5023;DHT22;2530;47.990;7.866;2023-08-06T13:04:10;12.70;99.90
5023;DHT22;2530;47.990;7.866;2023-08-06T13:06:37;13.50;99.90
5023;DHT22;2530;47.990;7.866;2023-08-06T13:09:06;12.40;99.90
5023;DHT22;2530;47.990;7.866;2023-08-06T13:11:32;13.00;99.90
5023;DHT22;2530;47.990;7.866;2023-08-06T13:14:09;13.60;99.90
5023;DHT22;2530;47.990;7.866;2023-08-06T13:16:37;14.00;99.90
5023;DHT22;2530;47.990;7.866;2023-08-06T13:19:03;14.30;99.90
5023;DHT22;2530;47.990;7.866;2023-08-06T13:24:02;14.70;99.90
5023;DHT22;2530;47.990;7.866;2023-08-06T13:26:29;15.00;99.90
5023;DHT22;2530;47.990;7.866;2023-08-06T13:28:56;15.10;99.90
5023;DHT22;2530;47.990;7.866;2023-08-06T13:31:22;15.20;99.90
5023;DHT22;2530;47.990;7.866;2023-08-06T13:33:47;15.10;99.90
5023;DHT22;2530;47.990;7.866;2023-08-06T13:36:15;15.10;99.90
5023;DHT22;2530;47.990;7.866;2023-08-06T13:38:41;15.20;99.90
5023;DHT22;2530;47.990;7.866;2023-08-06T13:41:06;15.10;99.90
5023;DHT22;2530;47.990;7.866;2023-08-06T13:43:32;15.10;99.90
5023;DHT22;2530;47.990;7.866;2023-08-06T13:45:57;14.90;99.90
5023;DHT22;2530;47.990;7.866;2023-08-06T13:48:24;15.10;99.90
5023;DHT22;2530;47.990;7.866;2023-08-06T13:50:50;15.00;99.90
5023;DHT22;2530;47.990;7.866;2023-08-06T13:53:15;15.10;99.90
5023;DHT22;2530;47.990;7.866;2023-08-06T13:55:41;14.90;99.90
5023;DHT22;2530;47.990;7.866;2023-08-06T13:58:06;14.80;99.90
5023;DHT22;2530;47.990;7.866;2023-08-06T14:00:32;15.00;99.90
5023;DHT22;2530;47.990;7.866;2023-08-06T14:02:58;14.80;99.90
5023;DHT22;2530;47.990;7.866;2023-08-06T14:05:23;15.30;99.90
5023;DHT22;2530;47.990;7.866;2023-08-06T14:07:49;15.20;99.90
5023;DHT22;2530;47.990;7.866;2023-08-06T14:10:14;15.20;99.90
5023;DHT22;2530;47.990;7.866;2023-08-06T14:12:40;15.50;99.90
5023;DHT22;2530;47.990;7.866;2023-08-06T14:15:06;15.40;99.90
5023;DHT22;2530;47.990;7.866;2023-08-06T14:17:32;15.50;99.90
5023;DHT22;2530;47.990;7.866;2023-08-06T14:19:57;15.30;99.90
5023;DHT22;2530;47.990;7.866;2023-08-06T14:22:23;15.50;99.90
5023;DHT22;2530;47.990;7.866;2023-08-06T14:24:48;15.30;99.90
5023;DHT22;2530;47.990;7.866;2023-08-06T14:27:14;14.80;99.90
5023;DHT22;2530;47.990;7.866;2023-08-06T14:29:39;15.00;99.90
5023;DHT22;2530;47.990;7.866;2023-08-06T14:32:05;14.70;99.90
5023;DHT22;2530;47.990;7.866;2023-08-06T14:34:31;15.00;99.90
5023;DHT22;2530;47.990;7.866;2023-08-06T14:36:56;14.70;99.90
5023;DHT22;2530;47.990;7.866;2023-08-06T14:39:22;13.20;99.90
5023;DHT22;2530;47.990;7.866;2023-08-06T14:41:48;13.60;99.90
5023;DHT22;2530;47.990;7.866;2023-08-06T14:44:13;13.80;99.90
5023;DHT22;2530;47.990;7.866;2023-08-06T14:46:39;14.00;99.90
5023;DHT22;2530;47.990;7.866;2023-08-06T14:49:04;14.10;99.90
5023;DHT22;2530;47.990;7.866;2023-08-06T14:51:30;14.50;99.90
5023;DHT22;2530;47.990;7.866;2023-08-06T14:53:56;15.00;99.90
5023;DHT22;2530;47.990;7.866;2023-08-06T14:56:21;13.50;99.90
5023;DHT22;2530;47.990;7.866;2023-08-06T14:58:47;14.60;99.90
5023;DHT22;2530;47.990;7.866;2023-08-06T15:01:13;14.50;99.90
5023;DHT22;2530;47.990;7.866;2023-08-06T15:03:38;14.00;99.90
5023;DHT22;2530;47.990;7.866;2023-08-06T15:06:04;14.60;99.90
5023;DHT22;2530;47.990;7.866;2023-08-06T15:08:29;13.70;99.90
5023;DHT22;2530;47.990;7.866;2023-08-06T15:10:55;14.60;99.90
5023;DHT22;2530;47.990;7.866;2023-08-06T15:13:21;14.40;99.90
5023;DHT22;2530;47.990;7.866;2023-08-06T15:15:47;14.00;99.90
5023;DHT22;2530;47.990;7.866;2023-08-06T15:18:13;14.60;99.90
5023;DHT22;2530;47.990;7.866;2023-08-06T15:20:39;15.00;99.90
5023;DHT22;2530;47.990;7.866;2023-08-06T15:23:06;14.50;99.90
5023;DHT22;2530;47.990;7.866;2023-08-06T15:25:32;15.00;99.90
5023;DHT22;2530;47.990;7.866;2023-08-06T15:27:57;14.30;99.90
5023;DHT22;2530;47.990;7.866;2023-08-06T15:30:23;14.20;99.90
5023;DHT22;2530;47.990;7.866;2023-08-06T15:32:48;14.50;99.90
5023;DHT22;2530;47.990;7.866;2023-08-06T15:35:14;14.50;99.90
5023;DHT22;2530;47.990;7.866;2023-08-06T15:37:40;14.80;99.90
5023;DHT22;2530;47.990;7.866;2023-08-06T15:40:06;13.70;99.90
5023;DHT22;2530;47.990;7.866;2023-08-06T15:42:32;14.80;99.90
5023;DHT22;2530;47.990;7.866;2023-08-06T15:44:58;14.50;99.90
5023;DHT22;2530;47.990;7.866;2023-08-06T15:47:24;14.90;99.90
5023;DHT22;2530;47.990;7.866;2023-08-06T15:49:49;16.80;99.90
5023;DHT22;2530;47.990;7.866;2023-08-06T15:52:15;15.30;99.90
5023;DHT22;2530;47.990;7.866;2023-08-06T15:54:41;15.30;99.90
5023;DHT22;2530;47.990;7.866;2023-08-06T15:57:06;15.50;99.90
5023;DHT22;2530;47.990;7.866;2023-08-06T15:59:32;15.50;99.90
5023;DHT22;2530;47.990;7.866;2023-08-06T16:01:59;15.70;99.90
5023;DHT22;2530;47.990;7.866;2023-08-06T16:04:28;15.60;99.90
5023;DHT22;2530;47.990;7.866;2023-08-06T16:06:54;17.30;99.90
5023;DHT22;2530;47.990;7.866;2023-08-06T16:09:19;15.60;99.90